sensor_id;sensor_type;location;lat;lon;timestamp;P1;durP1;ratioP1;P2;durP2;ratioP2
6414;SDS011;3240;48.790;9.210;2022-08-18T00:02:22;6.37;;;5.50;;
6414;SDS011;3240;48.790;9.210;2022-08-18T00:04:48;8.33;;;5.40;;
6414;SDS011;3240;48.790;9.210;2022-08-18T00:07:18;6.65;;;5.40;;
6414;SDS011;3240;48.790;9.210;2022-08-18T00:09:45;9.03;;;6.57;;
6414;SDS011;3240;48.790;9.210;2022-08-18T00:12:15;10.30;;;6.90;;
6414;SDS011;3240;48.790;9.210;2022-08-18T00:14:42;9.80;;;7.33;;
6414;SDS011;3240;48.790;9.210;2022-08-18T00:17:10;7.20;;;6.50;;
6414;SDS011;3240;48.790;9.210;2022-08-18T00:19:39;9.60;;;6.30;;
6414;SDS011;3240;48.790;9.210;2022-08-18T00:22:07;9.20;;;6.80;;
6414;SDS011;3240;48.790;9.210;2022-08-18T00:24:35;9.47;;;6.20;;
6414;SDS011;3240;48.790;9.210;2022-08-18T00:27:04;9.53;;;6.80;;
6414;SDS011;3240;48.790;9.210;2022-08-18T00:29:32;7.57;;;6.30;;
6414;SDS011;3240;48.790;9.210;2022-08-18T00:32:10;7.17;;;6.47;;
6414;SDS011;3240;48.790;9.210;2022-08-18T00:34:29;8.23;;;6.90;;
6414;SDS011;3240;48.790;9.210;2022-08-18T00:36:57;9.33;;;5.97;;
6414;SDS011;3240;48.790;9.210;2022-08-18T00:39:25;8.40;;;7.00;;
6414;SDS011;3240;48.790;9.210;2022-08-18T00:41:54;10.93;;;6.20;;
6414;SDS011;3240;48.790;9.210;2022-08-18T00:44:22;8.47;;;7.03;;
6414;SDS011;3240;48.790;9.210;2022-08-18T00:46:50;6.90;;;6.20;;
6414;SDS011;3240;48.790;9.210;2022-08-18T00:49:19;15.40;;;7.53;;
6414;SDS011;3240;48.790;9.210;2022-08-18T00:51:48;9.43;;;6.53;;
6414;SDS011;3240;48.790;9.210;2022-08-18T00:54:18;8.30;;;6.67;;
6414;SDS011;3240;48.790;9.210;2022-08-18T00:56:45;8.80;;;6.37;;
6414;SDS011;3240;48.790;9.210;2022-08-18T00:59:22;7.87;;;6.43;;
6414;SDS011;3240;48.790;9.210;2022-08-18T01:01:51;8.60;;;6.70;;
6414;SDS011;3240;48.790;9.210;2022-08-18T01:04:21;15.50;;;7.30;;
6414;SDS011;3240;48.790;9.210;2022-08-18T01:06:49;9.23;;;7.00;;
6414;SDS011;3240;48.790;9.210;2022-08-18T01:09:17;14.30;;;7.80;;
6414;SDS011;3240;48.790;9.210;2022-08-18T01:11:45;11.60;;;6.70;;
6414;SDS011;3240;48.790;9.210;2022-08-18T01:14:13;13.30;;;8.50;;
6414;SDS011;3240;48.790;9.210;2022-08-18T01:16:45;11.30;;;7.47;;
6414;SDS011;3240;48.790;9.210;2022-08-18T01:19:18;11.10;;;7.20;;
6414;SDS011;3240;48.790;9.210;2022-08-18T01:21:55;10.75;;;7.40;;
6414;SDS011;3240;48.790;9.210;2022-08-18T01:24:23;9.77;;;7.00;;
6414;SDS011;3240;48.790;9.210;2022-08-18T01:26:50;11.70;;;7.40;;
6414;SDS011;3240;48.790;9.210;2022-08-18T01:29:18;9.70;;;7.20;;
6414;SDS011;3240;48.790;9.210;2022-08-18T01:31:48;8.60;;;7.50;;
6414;SDS011;3240;48.790;9.210;2022-08-18T01:34:15;9.40;;;6.83;;
6414;SDS011;3240;48.790;9.210;2022-08-18T01:36:43;10.53;;;7.57;;
6414;SDS011;3240;48.790;9.210;2022-08-18T01:39:12;8.03;;;6.40;;
6414;SDS011;3240;48.790;9.210;2022-08-18T01:41:40;9.03;;;7.10;;
6414;SDS011;3240;48.790;9.210;2022-08-18T01:44:08;6.87;;;6.17;;
6414;SDS011;3240;48.790;9.210;2022-08-18T01:46:38;9.23;;;6.77;;
6414;SDS011;3240;48.790;9.210;2022-08-18T01:49:05;10.40;;;7.40;;
6414;SDS011;3240;48.790;9.210;2022-08-18T01:51:34;12.00;;;8.10;;
6414;SDS011;3240;48.790;9.210;2022-08-18T01:54:02;9.33;;;7.10;;
6414;SDS011;3240;48.790;9.210;2022-08-18T01:56:30;10.53;;;7.30;;
6414;SDS011;3240;48.790;9.210;2022-08-18T01:58:58;9.50;;;7.97;;
6414;SDS011;3240;48.790;9.210;2022-08-18T02:01:27;8.43;;;7.00;;
6414;SDS011;3240;48.790;9.210;2022-08-18T02:03:55;9.70;;;7.07;;
6414;SDS011;3240;48.790;9.210;2022-08-18T02:06:23;9.90;;;6.93;;
6414;SDS011;3240;48.790;9.210;2022-08-18T02:08:52;7.80;;;6.33;;
6414;SDS011;3240;48.790;9.210;2022-08-18T02:11:20;7.43;;;5.70;;
6414;SDS011;3240;48.790;9.210;2022-08-18T02:13:48;7.83;;;5.97;;
6414;SDS011;3240;48.790;9.210;2022-08-18T02:16:17;7.57;;;6.47;;
6414;SDS011;3240;48.790;9.210;2022-08-18T02:18:45;8.50;;;7.00;;
6414;SDS011;3240;48.790;9.210;2022-08-18T02:21:15;8.97;;;7.00;;
6414;SDS011;3240;48.790;9.210;2022-08-18T02:23:42;8.10;;;7.27;;
6414;SDS011;3240;48.790;9.210;2022-08-18T02:26:11;8.53;;;6.67;;
6414;SDS011;3240;48.790;9.210;2022-08-18T02:28:38;9.90;;;6.40;;
6414;SDS011;3240;48.790;9.210;2022-08-18T02:31:08;10.40;;;7.30;;
6414;SDS011;3240;48.790;9.210;2022-08-18T02:33:35;9.80;;;7.33;;
6414;SDS011;3240;48.790;9.210;2022-08-18T02:36:03;7.27;;;6.57;;
6414;SDS011;3240;48.790;9.210;2022-08-18T02:38:32;8.97;;;6.77;;
6414;SDS011;3240;48.790;9.210;2022-08-18T02:41:02;6.23;;;5.50;;
6414;SDS011;3240;48.790;9.210;2022-08-18T02:43:28;6.40;;;5.40;;
6414;SDS011;3240;48.790;9.210;2022-08-18T02:45:57;6.07;;;5.40;;
6414;SDS011;3240;48.790;9.210;2022-08-18T02:48:25;9.80;;;5.83;;
6414;SDS011;3240;48.790;9.210;2022-08-18T02:51:07;6.00;;;4.60;;
6414;SDS011;3240;48.790;9.210;2022-08-18T02:53:35;6.00;;;5.33;;
6414;SDS011;3240;48.790;9.210;2022-08-18T02:56:04;6.53;;;5.83;;
6414;SDS011;3240;48.790;9.210;2022-08-18T02:58:31;6.80;;;5.10;;
6414;SDS011;3240;48.790;9.210;2022-08-18T03:00:59;9.53;;;5.90;;
6414;SDS011;3240;48.790;9.210;2022-08-18T03:03:27;5.90;;;5.30;;
6414;SDS011;3240;48.790;9.210;2022-08-18T03:05:56;6.50;;;5.10;;
6414;SDS011;3240;48.790;9.210;2022-08-18T03:08:24;6.90;;;5.43;;
6414;SDS011;3240;48.790;9.210;2022-08-18T03:10:52;6.43;;;5.40;;
6414;SDS011;3240;48.790;9.210;2022-08-18T03:13:21;8.00;;;5.90;;
6414;SDS011;3240;48.790;9.210;2022-08-18T03:15:49;8.80;;;5.87;;
6414;SDS011;3240;48.790;9.210;2022-08-18T03:18:17;8.50;;;5.53;;
6414;SDS011;3240;48.790;9.210;2022-08-18T03:20:46;5.57;;;4.97;;
6414;SDS011;3240;48.790;9.210;2022-08-18T03:23:14;9.17;;;5.97;;
6414;SDS011;3240;48.790;9.210;2022-08-18T03:25:43;7.90;;;5.33;;
6414;SDS011;3240;48.790;9.210;2022-08-18T03:28:11;8.27;;;5.70;;
6414;SDS011;3240;48.790;9.210;2022-08-18T03:30:39;5.93;;;5.30;;
6414;SDS011;3240;48.790;9.210;2022-08-18T03:33:08;6.17;;;5.50;;
6414;SDS011;3240;48.790;9.210;2022-08-18T03:35:36;8.40;;;6.00;;
6414;SDS011;3240;48.790;9.210;2022-08-18T03:38:04;7.20;;;5.77;;
6414;SDS011;3240;48.790;9.210;2022-08-18T03:40:32;10.60;;;5.63;;
6414;SDS011;3240;48.790;9.210;2022-08-18T03:43:02;6.93;;;6.10;;
6414;SDS011;3240;48.790;9.210;2022-08-18T03:45:29;8.37;;;6.03;;
6414;SDS011;3240;48.790;9.210;2022-08-18T03:47:58;6.50;;;5.23;;
6414;SDS011;3240;48.790;9.210;2022-08-18T03:50:27;7.73;;;6.00;;
6414;SDS011;3240;48.790;9.210;2022-08-18T03:52:54;6.37;;;5.60;;
6414;SDS011;3240;48.790;9.210;2022-08-18T03:55:22;6.50;;;5.53;;
6414;SDS011;3240;48.790;9.210;2022-08-18T03:57:51;6.60;;;5.83;;
6414;SDS011;3240;48.790;9.210;2022-08-18T04:00:19;9.93;;;5.90;;
6414;SDS011;3240;48.790;9.210;2022-08-18T04:02:47;6.50;;;5.60;;
6414;SDS011;3240;48.790;9.210;2022-08-18T04:05:16;7.03;;;5.47;;
6414;SDS011;3240;48.790;9.210;2022-08-18T04:07:44;6.67;;;5.80;;
6414;SDS011;3240;48.790;9.210;2022-08-18T04:10:13;6.73;;;5.57;;
6414;SDS011;3240;48.790;9.210;2022-08-18T04:12:41;9.13;;;6.80;;
6414;SDS011;3240;48.790;9.210;2022-08-18T04:15:09;9.37;;;7.30;;
6414;SDS011;3240;48.790;9.210;2022-08-18T04:17:38;8.73;;;7.27;;
6414;SDS011;3240;48.790;9.210;2022-08-18T04:20:06;8.13;;;6.62;;
6414;SDS011;3240;48.790;9.210;2022-08-18T04:22:35;7.23;;;5.70;;
6414;SDS011;3240;48.790;9.210;2022-08-18T04:25:03;7.13;;;5.67;;
6414;SDS011;3240;48.790;9.210;2022-08-18T04:27:31;7.70;;;6.13;;
6414;SDS011;3240;48.790;9.210;2022-08-18T04:30:00;7.40;;;5.87;;
6414;SDS011;3240;48.790;9.210;2022-08-18T04:32:29;7.93;;;6.23;;
6414;SDS011;3240;48.790;9.210;2022-08-18T04:34:56;10.13;;;6.60;;
6414;SDS011;3240;48.790;9.210;2022-08-18T04:37:25;7.47;;;6.67;;
6414;SDS011;3240;48.790;9.210;2022-08-18T04:39:53;8.93;;;6.50;;
6414;SDS011;3240;48.790;9.210;2022-08-18T04:42:21;7.90;;;6.67;;
6414;SDS011;3240;48.790;9.210;2022-08-18T04:44:50;6.90;;;6.20;;
6414;SDS011;3240;48.790;9.210;2022-08-18T04:47:18;7.73;;;6.23;;
6414;SDS011;3240;48.790;9.210;2022-08-18T04:49:46;7.40;;;6.20;;
6414;SDS011;3240;48.790;9.210;2022-08-18T04:52:15;8.73;;;6.30;;
6414;SDS011;3240;48.790;9.210;2022-08-18T04:54:49;6.73;;;5.80;;
6414;SDS011;3240;48.790;9.210;2022-08-18T04:57:18;7.80;;;6.40;;
6414;SDS011;3240;48.790;9.210;2022-08-18T04:59:46;7.40;;;6.07;;
6414;SDS011;3240;48.790;9.210;2022-08-18T05:02:14;8.33;;;6.33;;
6414;SDS011;3240;48.790;9.210;2022-08-18T05:04:42;8.53;;;5.83;;
6414;SDS011;3240;48.790;9.210;2022-08-18T05:07:11;8.07;;;6.03;;
6414;SDS011;3240;48.790;9.210;2022-08-18T05:09:39;15.17;;;7.07;;
6414;SDS011;3240;48.790;9.210;2022-08-18T05:12:08;10.47;;;7.47;;
6414;SDS011;3240;48.790;9.210;2022-08-18T05:14:35;11.83;;;7.27;;
6414;SDS011;3240;48.790;9.210;2022-08-18T05:17:04;13.60;;;7.00;;
6414;SDS011;3240;48.790;9.210;2022-08-18T05:19:32;8.03;;;6.80;;
6414;SDS011;3240;48.790;9.210;2022-08-18T05:22:01;8.13;;;6.57;;
6414;SDS011;3240;48.790;9.210;2022-08-18T05:24:29;18.27;;;12.33;;
6414;SDS011;3240;48.790;9.210;2022-08-18T05:26:57;13.07;;;7.40;;
6414;SDS011;3240;48.790;9.210;2022-08-18T05:29:25;8.40;;;6.40;;
6414;SDS011;3240;48.790;9.210;2022-08-18T05:31:54;7.80;;;5.97;;
6414;SDS011;3240;48.790;9.210;2022-08-18T05:34:22;8.50;;;6.00;;
6414;SDS011;3240;48.790;9.210;2022-08-18T05:37:10;8.00;;;6.20;;
6414;SDS011;3240;48.790;9.210;2022-08-18T05:39:37;8.67;;;6.87;;
6414;SDS011;3240;48.790;9.210;2022-08-18T05:42:06;10.83;;;7.07;;
6414;SDS011;3240;48.790;9.210;2022-08-18T05:44:35;9.67;;;7.87;;
6414;SDS011;3240;48.790;9.210;2022-08-18T05:47:04;8.13;;;6.50;;
6414;SDS011;3240;48.790;9.210;2022-08-18T05:49:31;9.20;;;6.77;;
6414;SDS011;3240;48.790;9.210;2022-08-18T05:52:02;11.50;;;6.60;;
6414;SDS011;3240;48.790;9.210;2022-08-18T05:54:32;11.33;;;6.40;;
6414;SDS011;3240;48.790;9.210;2022-08-18T05:57:04;9.60;;;6.20;;
6414;SDS011;3240;48.790;9.210;2022-08-18T05:59:31;8.50;;;6.50;;
6414;SDS011;3240;48.790;9.210;2022-08-18T06:04:38;8.77;;;6.40;;
6414;SDS011;3240;48.790;9.210;2022-08-18T06:07:03;10.83;;;7.10;;
6414;SDS011;3240;48.790;9.210;2022-08-18T06:09:31;8.50;;;6.73;;
6414;SDS011;3240;48.790;9.210;2022-08-18T06:12:03;11.97;;;7.63;;
6414;SDS011;3240;48.790;9.210;2022-08-18T06:14:29;9.80;;;7.67;;
6414;SDS011;3240;48.790;9.210;2022-08-18T06:17:02;12.30;;;8.07;;
6414;SDS011;3240;48.790;9.210;2022-08-18T06:19:33;8.43;;;7.13;;
6414;SDS011;3240;48.790;9.210;2022-08-18T06:22:02;14.97;;;8.27;;
6414;SDS011;3240;48.790;9.210;2022-08-18T06:24:30;15.10;;;8.50;;
6414;SDS011;3240;48.790;9.210;2022-08-18T06:29:40;13.50;;;9.60;;
6414;SDS011;3240;48.790;9.210;2022-08-18T06:32:09;11.00;;;8.03;;
6414;SDS011;3240;48.790;9.210;2022-08-18T06:34:39;10.20;;;8.37;;
6414;SDS011;3240;48.790;9.210;2022-08-18T06:37:06;12.70;;;8.87;;
6414;SDS011;3240;48.790;9.210;2022-08-18T06:39:35;14.07;;;9.60;;
6414;SDS011;3240;48.790;9.210;2022-08-18T06:42:02;12.93;;;9.03;;
6414;SDS011;3240;48.790;9.210;2022-08-18T06:44:33;14.70;;;9.93;;
6414;SDS011;3240;48.790;9.210;2022-08-18T06:47:19;12.07;;;8.20;;
6414;SDS011;3240;48.790;9.210;2022-08-18T06:49:48;15.23;;;8.87;;
6414;SDS011;3240;48.790;9.210;2022-08-18T06:52:22;11.87;;;8.23;;
6414;SDS011;3240;48.790;9.210;2022-08-18T06:54:49;13.90;;;8.93;;
6414;SDS011;3240;48.790;9.210;2022-08-18T06:57:24;12.50;;;9.03;;
6414;SDS011;3240;48.790;9.210;2022-08-18T06:59:54;14.17;;;9.17;;
6414;SDS011;3240;48.790;9.210;2022-08-18T07:02:30;14.53;;;8.77;;
6414;SDS011;3240;48.790;9.210;2022-08-18T07:04:58;12.93;;;9.40;;
6414;SDS011;3240;48.790;9.210;2022-08-18T07:07:29;12.40;;;9.00;;
6414;SDS011;3240;48.790;9.210;2022-08-18T07:09:56;16.63;;;10.10;;
6414;SDS011;3240;48.790;9.210;2022-08-18T07:12:26;15.40;;;9.60;;
6414;SDS011;3240;48.790;9.210;2022-08-18T07:14:55;11.40;;;8.63;;
6414;SDS011;3240;48.790;9.210;2022-08-18T07:17:24;13.33;;;9.43;;
6414;SDS011;3240;48.790;9.210;2022-08-18T07:19:57;14.20;;;8.60;;
6414;SDS011;3240;48.790;9.210;2022-08-18T07:22:24;11.03;;;8.80;;
6414;SDS011;3240;48.790;9.210;2022-08-18T07:24:53;12.40;;;9.27;;
6414;SDS011;3240;48.790;9.210;2022-08-18T07:27:29;15.73;;;9.10;;
6414;SDS011;3240;48.790;9.210;2022-08-18T07:32:25;9.87;;;8.47;;
6414;SDS011;3240;48.790;9.210;2022-08-18T07:34:52;11.87;;;9.00;;
6414;SDS011;3240;48.790;9.210;2022-08-18T07:37:23;13.73;;;9.53;;
6414;SDS011;3240;48.790;9.210;2022-08-18T07:39:53;12.97;;;9.27;;
6414;SDS011;3240;48.790;9.210;2022-08-18T07:42:26;14.33;;;9.60;;
6414;SDS011;3240;48.790;9.210;2022-08-18T07:44:56;9.90;;;8.30;;
6414;SDS011;3240;48.790;9.210;2022-08-18T07:47:23;14.47;;;9.10;;
6414;SDS011;3240;48.790;9.210;2022-08-18T07:49:50;14.13;;;9.23;;
6414;SDS011;3240;48.790;9.210;2022-08-18T07:52:19;15.20;;;8.53;;
6414;SDS011;3240;48.790;9.210;2022-08-18T07:54:49;11.00;;;7.63;;
6414;SDS011;3240;48.790;9.210;2022-08-18T07:57:19;11.23;;;8.23;;
6414;SDS011;3240;48.790;9.210;2022-08-18T07:59:47;11.10;;;8.40;;
6414;SDS011;3240;48.790;9.210;2022-08-18T08:08:08;11.20;;;8.73;;
6414;SDS011;3240;48.790;9.210;2022-08-18T08:10:21;10.90;;;7.40;;
6414;SDS011;3240;48.790;9.210;2022-08-18T08:15:40;13.00;;;8.80;;
6414;SDS011;3240;48.790;9.210;2022-08-18T08:18:11;13.33;;;8.87;;
6414;SDS011;3240;48.790;9.210;2022-08-18T08:20:42;8.83;;;7.57;;
6414;SDS011;3240;48.790;9.210;2022-08-18T08:23:15;10.30;;;8.03;;
6414;SDS011;3240;48.790;9.210;2022-08-18T08:25:53;13.00;;;8.23;;
6414;SDS011;3240;48.790;9.210;2022-08-18T08:28:22;10.37;;;7.43;;
6414;SDS011;3240;48.790;9.210;2022-08-18T08:30:54;14.93;;;7.80;;
6414;SDS011;3240;48.790;9.210;2022-08-18T08:33:31;8.33;;;7.40;;
6414;SDS011;3240;48.790;9.210;2022-08-18T08:36:03;12.37;;;8.13;;
6414;SDS011;3240;48.790;9.210;2022-08-18T08:38:36;11.50;;;8.37;;
6414;SDS011;3240;48.790;9.210;2022-08-18T08:41:00;12.23;;;8.63;;
6414;SDS011;3240;48.790;9.210;2022-08-18T08:43:29;15.60;;;8.60;;
6414;SDS011;3240;48.790;9.210;2022-08-18T08:46:04;14.10;;;9.17;;
6414;SDS011;3240;48.790;9.210;2022-08-18T08:48:29;20.93;;;9.80;;
6414;SDS011;3240;48.790;9.210;2022-08-18T08:51:02;12.03;;;9.27;;
6414;SDS011;3240;48.790;9.210;2022-08-18T08:53:31;13.65;;;9.63;;
6414;SDS011;3240;48.790;9.210;2022-08-18T08:56:02;11.27;;;7.03;;
6414;SDS011;3240;48.790;9.210;2022-08-18T08:58:33;18.07;;;8.33;;
6414;SDS011;3240;48.790;9.210;2022-08-18T09:00:58;10.40;;;6.80;;
6414;SDS011;3240;48.790;9.210;2022-08-18T09:03:32;7.33;;;6.33;;
6414;SDS011;3240;48.790;9.210;2022-08-18T09:06:03;7.70;;;6.10;;
6414;SDS011;3240;48.790;9.210;2022-08-18T09:13:50;5.90;;;5.30;;
6414;SDS011;3240;48.790;9.210;2022-08-18T09:16:24;7.83;;;6.07;;
6414;SDS011;3240;48.790;9.210;2022-08-18T09:21:37;8.53;;;6.70;;
6414;SDS011;3240;48.790;9.210;2022-08-18T09:24:05;11.77;;;5.90;;
6414;SDS011;3240;48.790;9.210;2022-08-18T09:26:40;7.00;;;6.30;;
6414;SDS011;3240;48.790;9.210;2022-08-18T09:29:13;9.10;;;6.87;;
6414;SDS011;3240;48.790;9.210;2022-08-18T09:31:39;9.10;;;7.50;;
6414;SDS011;3240;48.790;9.210;2022-08-18T09:34:17;9.00;;;6.77;;
6414;SDS011;3240;48.790;9.210;2022-08-18T09:36:44;11.27;;;8.00;;
6414;SDS011;3240;48.790;9.210;2022-08-18T09:41:53;9.50;;;8.03;;
6414;SDS011;3240;48.790;9.210;2022-08-18T09:46:55;9.77;;;6.93;;
6414;SDS011;3240;48.790;9.210;2022-08-18T09:49:30;11.13;;;8.50;;
6414;SDS011;3240;48.790;9.210;2022-08-18T09:51:59;8.70;;;7.80;;
6414;SDS011;3240;48.790;9.210;2022-08-18T09:54:28;11.27;;;8.03;;
6414;SDS011;3240;48.790;9.210;2022-08-18T09:56:57;13.10;;;8.70;;
6414;SDS011;3240;48.790;9.210;2022-08-18T10:07:30;9.67;;;7.53;;
6414;SDS011;3240;48.790;9.210;2022-08-18T10:10:01;9.43;;;7.40;;
6414;SDS011;3240;48.790;9.210;2022-08-18T10:12:30;7.43;;;6.70;;
6414;SDS011;3240;48.790;9.210;2022-08-18T10:14:58;9.60;;;6.60;;
6414;SDS011;3240;48.790;9.210;2022-08-18T10:20:02;11.80;;;6.80;;
6414;SDS011;3240;48.790;9.210;2022-08-18T10:25:00;13.30;;;8.43;;
6414;SDS011;3240;48.790;9.210;2022-08-18T10:27:34;10.03;;;7.40;;
6414;SDS011;3240;48.790;9.210;2022-08-18T10:30:00;8.90;;;7.40;;
6414;SDS011;3240;48.790;9.210;2022-08-18T10:32:35;8.50;;;7.40;;
6414;SDS011;3240;48.790;9.210;2022-08-18T10:35:02;8.30;;;7.20;;
6414;SDS011;3240;48.790;9.210;2022-08-18T10:37:35;11.30;;;8.60;;
6414;SDS011;3240;48.790;9.210;2022-08-18T10:40:18;9.87;;;8.13;;
6414;SDS011;3240;48.790;9.210;2022-08-18T10:42:52;11.27;;;8.37;;
6414;SDS011;3240;48.790;9.210;2022-08-18T10:45:35;9.67;;;7.60;;
6414;SDS011;3240;48.790;9.210;2022-08-18T10:48:07;10.37;;;8.40;;
6414;SDS011;3240;48.790;9.210;2022-08-18T10:50:37;8.97;;;7.60;;
6414;SDS011;3240;48.790;9.210;2022-08-18T10:53:11;7.13;;;6.43;;
6414;SDS011;3240;48.790;9.210;2022-08-18T10:55:41;7.93;;;7.13;;
6414;SDS011;3240;48.790;9.210;2022-08-18T10:58:08;12.80;;;8.70;;
6414;SDS011;3240;48.790;9.210;2022-08-18T11:00:39;9.67;;;8.57;;
6414;SDS011;3240;48.790;9.210;2022-08-18T11:03:08;7.90;;;7.20;;
6414;SDS011;3240;48.790;9.210;2022-08-18T11:05:32;7.50;;;6.80;;
6414;SDS011;3240;48.790;9.210;2022-08-18T11:08:01;8.93;;;8.03;;
6414;SDS011;3240;48.790;9.210;2022-08-18T11:10:35;9.20;;;8.00;;
6414;SDS011;3240;48.790;9.210;2022-08-18T11:13:11;8.33;;;7.53;;
6414;SDS011;3240;48.790;9.210;2022-08-18T11:15:52;12.50;;;7.77;;
6414;SDS011;3240;48.790;9.210;2022-08-18T11:18:24;9.60;;;8.03;;
6414;SDS011;3240;48.790;9.210;2022-08-18T11:20:49;9.60;;;8.33;;
6414;SDS011;3240;48.790;9.210;2022-08-18T11:23:17;9.70;;;6.93;;
6414;SDS011;3240;48.790;9.210;2022-08-18T11:25:46;8.80;;;7.83;;
6414;SDS011;3240;48.790;9.210;2022-08-18T11:28:15;12.83;;;9.23;;
6414;SDS011;3240;48.790;9.210;2022-08-18T11:30:42;9.20;;;8.20;;
6414;SDS011;3240;48.790;9.210;2022-08-18T11:33:15;14.80;;;8.90;;
6414;SDS011;3240;48.790;9.210;2022-08-18T11:35:44;10.27;;;8.77;;
6414;SDS011;3240;48.790;9.210;2022-08-18T11:38:12;9.57;;;8.60;;
6414;SDS011;3240;48.790;9.210;2022-08-18T11:40:41;9.70;;;8.47;;
6414;SDS011;3240;48.790;9.210;2022-08-18T11:43:16;10.80;;;9.10;;
6414;SDS011;3240;48.790;9.210;2022-08-18T11:45:49;10.17;;;9.13;;
6414;SDS011;3240;48.790;9.210;2022-08-18T11:48:18;12.47;;;9.40;;
6414;SDS011;3240;48.790;9.210;2022-08-18T11:50:47;11.77;;;9.20;;
6414;SDS011;3240;48.790;9.210;2022-08-18T11:53:20;9.00;;;8.13;;
6414;SDS011;3240;48.790;9.210;2022-08-18T11:55:43;9.47;;;7.90;;
6414;SDS011;3240;48.790;9.210;2022-08-18T11:58:12;9.27;;;8.37;;
6414;SDS011;3240;48.790;9.210;2022-08-18T12:00:52;11.23;;;7.87;;
6414;SDS011;3240;48.790;9.210;2022-08-18T12:03:19;12.67;;;8.17;;
6414;SDS011;3240;48.790;9.210;2022-08-18T12:05:46;9.93;;;8.30;;
6414;SDS011;3240;48.790;9.210;2022-08-18T12:08:16;11.40;;;8.13;;
6414;SDS011;3240;48.790;9.210;2022-08-18T12:10:43;13.33;;;9.30;;
6414;SDS011;3240;48.790;9.210;2022-08-18T12:13:19;10.37;;;8.30;;
6414;SDS011;3240;48.790;9.210;2022-08-18T12:15:40;9.07;;;8.17;;
6414;SDS011;3240;48.790;9.210;2022-08-18T12:18:08;8.00;;;7.30;;
6414;SDS011;3240;48.790;9.210;2022-08-18T12:20:37;11.50;;;8.27;;
6414;SDS011;3240;48.790;9.210;2022-08-18T12:23:05;8.77;;;7.37;;
6414;SDS011;3240;48.790;9.210;2022-08-18T12:25:33;9.80;;;8.77;;
6414;SDS011;3240;48.790;9.210;2022-08-18T12:28:02;8.83;;;7.93;;
6414;SDS011;3240;48.790;9.210;2022-08-18T12:30:30;9.33;;;8.43;;
6414;SDS011;3240;48.790;9.210;2022-08-18T12:32:58;8.80;;;7.60;;
6414;SDS011;3240;48.790;9.210;2022-08-18T12:35:27;10.00;;;7.67;;
6414;SDS011;3240;48.790;9.210;2022-08-18T12:37:55;9.70;;;7.83;;
6414;SDS011;3240;48.790;9.210;2022-08-18T12:40:23;10.27;;;7.37;;
6414;SDS011;3240;48.790;9.210;2022-08-18T12:42:52;8.27;;;6.97;;
6414;SDS011;3240;48.790;9.210;2022-08-18T12:45:20;8.60;;;7.80;;
6414;SDS011;3240;48.790;9.210;2022-08-18T12:47:48;8.93;;;8.10;;
6414;SDS011;3240;48.790;9.210;2022-08-18T12:50:17;9.43;;;7.67;;
6414;SDS011;3240;48.790;9.210;2022-08-18T12:52:45;9.80;;;7.93;;
6414;SDS011;3240;48.790;9.210;2022-08-18T12:55:13;8.33;;;7.43;;
6414;SDS011;3240;48.790;9.210;2022-08-18T12:57:42;10.50;;;8.50;;
6414;SDS011;3240;48.790;9.210;2022-08-18T13:00:10;10.63;;;8.47;;
6414;SDS011;3240;48.790;9.210;2022-08-18T13:02:38;8.47;;;7.63;;
6414;SDS011;3240;48.790;9.210;2022-08-18T13:05:07;8.97;;;6.83;;
6414;SDS011;3240;48.790;9.210;2022-08-18T13:07:35;9.20;;;8.27;;
6414;SDS011;3240;48.790;9.210;2022-08-18T13:10:04;8.90;;;8.07;;
6414;SDS011;3240;48.790;9.210;2022-08-18T13:12:32;9.20;;;8.30;;
6414;SDS011;3240;48.790;9.210;2022-08-18T13:15:01;9.80;;;7.93;;
6414;SDS011;3240;48.790;9.210;2022-08-18T13:17:29;7.27;;;6.57;;
6414;SDS011;3240;48.790;9.210;2022-08-18T13:19:57;11.17;;;7.50;;
6414;SDS011;3240;48.790;9.210;2022-08-18T13:22:26;8.77;;;7.80;;
6414;SDS011;3240;48.790;9.210;2022-08-18T13:24:54;10.77;;;7.97;;
6414;SDS011;3240;48.790;9.210;2022-08-18T13:27:22;11.23;;;7.67;;
6414;SDS011;3240;48.790;9.210;2022-08-18T13:29:51;12.57;;;8.13;;
6414;SDS011;3240;48.790;9.210;2022-08-18T13:32:19;9.40;;;7.10;;
6414;SDS011;3240;48.790;9.210;2022-08-18T13:34:47;8.10;;;7.13;;
6414;SDS011;3240;48.790;9.210;2022-08-18T13:37:16;7.57;;;6.87;;
6414;SDS011;3240;48.790;9.210;2022-08-18T13:39:44;7.47;;;6.77;;
6414;SDS011;3240;48.790;9.210;2022-08-18T13:42:12;10.00;;;8.00;;
6414;SDS011;3240;48.790;9.210;2022-08-18T13:44:41;7.10;;;6.50;;
6414;SDS011;3240;48.790;9.210;2022-08-18T13:47:09;8.47;;;6.70;;
6414;SDS011;3240;48.790;9.210;2022-08-18T13:49:37;6.50;;;5.80;;
6414;SDS011;3240;48.790;9.210;2022-08-18T13:52:06;11.10;;;6.37;;
6414;SDS011;3240;48.790;9.210;2022-08-18T13:54:34;10.70;;;6.67;;
6414;SDS011;3240;48.790;9.210;2022-08-18T13:57:03;6.30;;;5.70;;
6414;SDS011;3240;48.790;9.210;2022-08-18T13:59:31;8.20;;;6.27;;
6414;SDS011;3240;48.790;9.210;2022-08-18T14:02:00;7.80;;;5.80;;
6414;SDS011;3240;48.790;9.210;2022-08-18T14:04:27;7.13;;;6.43;;
6414;SDS011;3240;48.790;9.210;2022-08-18T14:06:56;7.30;;;6.30;;
6414;SDS011;3240;48.790;9.210;2022-08-18T14:09:25;6.83;;;6.13;;
6414;SDS011;3240;48.790;9.210;2022-08-18T14:11:52;7.50;;;6.10;;
6414;SDS011;3240;48.790;9.210;2022-08-18T14:14:21;6.80;;;6.07;;
6414;SDS011;3240;48.790;9.210;2022-08-18T14:16:49;8.10;;;7.10;;
6414;SDS011;3240;48.790;9.210;2022-08-18T14:19:17;9.57;;;6.47;;
6414;SDS011;3240;48.790;9.210;2022-08-18T14:21:52;6.95;;;5.85;;
6414;SDS011;3240;48.790;9.210;2022-08-18T14:24:26;12.83;;;5.40;;
6414;SDS011;3240;48.790;9.210;2022-08-18T14:27:00;7.30;;;6.13;;
6414;SDS011;3240;48.790;9.210;2022-08-18T14:29:28;7.27;;;6.43;;
6414;SDS011;3240;48.790;9.210;2022-08-18T14:31:56;6.40;;;5.80;;
6414;SDS011;3240;48.790;9.210;2022-08-18T14:34:25;6.97;;;6.30;;
6414;SDS011;3240;48.790;9.210;2022-08-18T14:36:53;6.83;;;5.57;;
6414;SDS011;3240;48.790;9.210;2022-08-18T14:39:21;6.20;;;5.57;;
6414;SDS011;3240;48.790;9.210;2022-08-18T14:41:50;6.30;;;5.63;;
6414;SDS011;3240;48.790;9.210;2022-08-18T14:44:18;6.90;;;5.80;;
6414;SDS011;3240;48.790;9.210;2022-08-18T14:46:46;7.43;;;6.00;;
6414;SDS011;3240;48.790;9.210;2022-08-18T14:49:15;6.67;;;6.07;;
6414;SDS011;3240;48.790;9.210;2022-08-18T14:51:43;7.57;;;6.13;;
6414;SDS011;3240;48.790;9.210;2022-08-18T14:54:11;6.47;;;5.80;;
6414;SDS011;3240;48.790;9.210;2022-08-18T14:56:40;9.30;;;5.77;;
6414;SDS011;3240;48.790;9.210;2022-08-18T14:59:08;8.63;;;6.40;;
6414;SDS011;3240;48.790;9.210;2022-08-18T15:01:36;10.87;;;5.43;;
6414;SDS011;3240;48.790;9.210;2022-08-18T15:04:05;6.80;;;5.77;;
6414;SDS011;3240;48.790;9.210;2022-08-18T15:06:33;7.17;;;5.77;;
6414;SDS011;3240;48.790;9.210;2022-08-18T15:09:02;6.00;;;5.50;;
6414;SDS011;3240;48.790;9.210;2022-08-18T15:11:30;6.60;;;6.00;;
6414;SDS011;3240;48.790;9.210;2022-08-18T15:13:58;7.40;;;6.07;;
6414;SDS011;3240;48.790;9.210;2022-08-18T15:16:26;11.57;;;6.20;;
6414;SDS011;3240;48.790;9.210;2022-08-18T15:18:55;6.30;;;5.70;;
6414;SDS011;3240;48.790;9.210;2022-08-18T15:21:23;7.60;;;6.43;;
6414;SDS011;3240;48.790;9.210;2022-08-18T15:23:57;8.20;;;6.10;;
6414;SDS011;3240;48.790;9.210;2022-08-18T15:26:31;6.73;;;6.00;;
6414;SDS011;3240;48.790;9.210;2022-08-18T15:29:00;6.50;;;5.80;;
6414;SDS011;3240;48.790;9.210;2022-08-18T15:31:28;7.07;;;6.37;;
6414;SDS011;3240;48.790;9.210;2022-08-18T15:33:56;6.93;;;5.97;;
6414;SDS011;3240;48.790;9.210;2022-08-18T15:36:25;7.30;;;6.60;;
6414;SDS011;3240;48.790;9.210;2022-08-18T15:38:53;7.60;;;6.53;;
6414;SDS011;3240;48.790;9.210;2022-08-18T15:41:26;10.60;;;5.77;;
6414;SDS011;3240;48.790;9.210;2022-08-18T15:43:51;7.80;;;6.60;;
6414;SDS011;3240;48.790;9.210;2022-08-18T15:46:20;7.23;;;6.50;;
6414;SDS011;3240;48.790;9.210;2022-08-18T15:48:48;7.10;;;6.40;;
6414;SDS011;3240;48.790;9.210;2022-08-18T15:51:16;8.03;;;6.17;;
6414;SDS011;3240;48.790;9.210;2022-08-18T15:53:45;7.17;;;6.47;;
6414;SDS011;3240;48.790;9.210;2022-08-18T15:56:15;7.67;;;6.97;;
6414;SDS011;3240;48.790;9.210;2022-08-18T15:58:42;8.27;;;6.40;;
6414;SDS011;3240;48.790;9.210;2022-08-18T16:01:11;7.50;;;6.47;;
6414;SDS011;3240;48.790;9.210;2022-08-18T16:03:39;8.40;;;7.13;;
6414;SDS011;3240;48.790;9.210;2022-08-18T16:06:11;8.50;;;6.93;;